Terminal Aerodrome Forecast
Issued by NWS Greer, SC

Home | Current Version | Previous Version | Text Only | Print | Product List | Glossary On
Versions: 1 2 3 4 5 6 7 8 9 10 11 12 13 14 15 16 17
000
FTUS42 KGSP 182334
TAFGSP
TAF
KGSP 182334Z 1900/1924 24008KT P6SM VCSH SCT045
     FM190300 24003KT P6SM SCT150
     FM191600 02003KT P6SM FEW045
     FM191900 21005KT P6SM FEW050=

USA.gov is the U.S. government's official web portal to all federal, state and local government web resources and services.